sensor_id;sensor_type;location;lat;lon;timestamp;pressure;altitude;pressure_sealevel;temperature;humidity
8398;BME280;4236;54.504;9.588;2024-02-16T00:01:08;101121.22;;;11.46;100.00
8398;BME280;4236;54.504;9.588;2024-02-16T00:03:35;101111.94;;;11.42;100.00
8398;BME280;4236;54.504;9.588;2024-02-16T00:06:05;101116.00;;;11.38;100.00
8398;BME280;4236;54.504;9.588;2024-02-16T00:08:33;101105.72;;;11.35;100.00
8398;BME280;4236;54.504;9.588;2024-02-16T00:11:05;101102.63;;;11.32;100.00
8398;BME280;4236;54.504;9.588;2024-02-16T00:13:33;101095.63;;;11.31;100.00
8398;BME280;4236;54.504;9.588;2024-02-16T00:16:00;101097.66;;;11.29;100.00
8398;BME280;4236;54.504;9.588;2024-02-16T00:18:28;101091.66;;;11.27;100.00
8398;BME280;4236;54.504;9.588;2024-02-16T00:20:56;101097.22;;;11.25;100.00
8398;BME280;4236;54.504;9.588;2024-02-16T00:23:25;101089.59;;;11.22;100.00
8398;BME280;4236;54.504;9.588;2024-02-16T00:25:53;101086.28;;;11.20;100.00
8398;BME280;4236;54.504;9.588;2024-02-16T00:28:20;101089.97;;;11.19;100.00
8398;BME280;4236;54.504;9.588;2024-02-16T00:30:48;101090.97;;;11.18;100.00
8398;BME280;4236;54.504;9.588;2024-02-16T00:33:16;101088.69;;;11.15;100.00
8398;BME280;4236;54.504;9.588;2024-02-16T00:35:45;101091.56;;;11.14;100.00
8398;BME280;4236;54.504;9.588;2024-02-16T00:38:15;101090.09;;;11.11;100.00
8398;BME280;4236;54.504;9.588;2024-02-16T00:40:44;101088.47;;;11.10;100.00
8398;BME280;4236;54.504;9.588;2024-02-16T00:43:12;101072.63;;;11.08;100.00
8398;BME280;4236;54.504;9.588;2024-02-16T00:45:40;101084.13;;;11.09;100.00
8398;BME280;4236;54.504;9.588;2024-02-16T00:48:11;101085.97;;;11.08;100.00
8398;BME280;4236;54.504;9.588;2024-02-16T00:50:39;101089.66;;;11.07;100.00
8398;BME280;4236;54.504;9.588;2024-02-16T00:53:09;101075.28;;;11.08;100.00
8398;BME280;4236;54.504;9.588;2024-02-16T00:55:37;101077.13;;;11.08;100.00
8398;BME280;4236;54.504;9.588;2024-02-16T00:58:06;101077.13;;;11.08;100.00
8398;BME280;4236;54.504;9.588;2024-02-16T01:00:33;101085.13;;;11.08;100.00
8398;BME280;4236;54.504;9.588;2024-02-16T01:03:02;101075.28;;;11.08;100.00
8398;BME280;4236;54.504;9.588;2024-02-16T01:05:30;101071.00;;;11.07;100.00
8398;BME280;4236;54.504;9.588;2024-02-16T01:07:58;101064.00;;;11.06;100.00
8398;BME280;4236;54.504;9.588;2024-02-16T01:10:26;101062.97;;;11.07;100.00
8398;BME280;4236;54.504;9.588;2024-02-16T01:12:53;101060.31;;;11.07;100.00
8398;BME280;4236;54.504;9.588;2024-02-16T01:15:24;101054.31;;;11.05;100.00
8398;BME280;4236;54.504;9.588;2024-02-16T01:17:51;101056.81;;;11.07;100.00
8398;BME280;4236;54.504;9.588;2024-02-16T01:20:19;101055.97;;;11.06;100.00
8398;BME280;4236;54.504;9.588;2024-02-16T01:22:47;101042.44;;;11.08;100.00
8398;BME280;4236;54.504;9.588;2024-02-16T01:25:14;101040.59;;;11.08;100.00
8398;BME280;4236;54.504;9.588;2024-02-16T01:27:42;101041.41;;;11.09;100.00
8398;BME280;4236;54.504;9.588;2024-02-16T01:30:11;101043.47;;;11.07;100.00
8398;BME280;4236;54.504;9.588;2024-02-16T01:32:40;101033.63;;;11.07;100.00
8398;BME280;4236;54.504;9.588;2024-02-16T01:35:08;101029.75;;;11.10;100.00
8398;BME280;4236;54.504;9.588;2024-02-16T01:37:36;101028.91;;;11.09;100.00
8398;BME280;4236;54.504;9.588;2024-02-16T01:40:05;101022.75;;;11.09;100.00
8398;BME280;4236;54.504;9.588;2024-02-16T01:42:33;101018.41;;;11.08;100.00
8398;BME280;4236;54.504;9.588;2024-02-16T01:45:00;101012.06;;;11.09;100.00
8398;BME280;4236;54.504;9.588;2024-02-16T01:47:28;101005.06;;;11.08;100.00
8398;BME280;4236;54.504;9.588;2024-02-16T01:49:57;101011.06;;;11.10;100.00
8398;BME280;4236;54.504;9.588;2024-02-16T01:52:25;100995.44;;;11.07;100.00
8398;BME280;4236;54.504;9.588;2024-02-16T01:54:52;100995.59;;;11.05;100.00
8398;BME280;4236;54.504;9.588;2024-02-16T01:57:20;101001.78;;;11.06;100.00
8398;BME280;4236;54.504;9.588;2024-02-16T01:59:48;101002.16;;;11.03;100.00
8398;BME280;4236;54.504;9.588;2024-02-16T02:02:16;100996.00;;;11.02;100.00
8398;BME280;4236;54.504;9.588;2024-02-16T02:04:44;100989.03;;;11.01;100.00
8398;BME280;4236;54.504;9.588;2024-02-16T02:07:14;100990.03;;;11.00;100.00
8398;BME280;4236;54.504;9.588;2024-02-16T02:09:43;100992.09;;;10.98;100.00
8398;BME280;4236;54.504;9.588;2024-02-16T02:12:10;100989.19;;;11.00;100.00
8398;BME280;4236;54.504;9.588;2024-02-16T02:14:38;100993.09;;;10.97;100.00
8398;BME280;4236;54.504;9.588;2024-02-16T02:17:06;100991.25;;;10.98;100.00
8398;BME280;4236;54.504;9.588;2024-02-16T02:19:34;100988.59;;;10.98;100.00
8398;BME280;4236;54.504;9.588;2024-02-16T02:22:02;100984.25;;;10.97;100.00
8398;BME280;4236;54.504;9.588;2024-02-16T02:24:31;100977.28;;;10.96;100.00
8398;BME280;4236;54.504;9.588;2024-02-16T02:26:59;100963.94;;;10.96;100.00
8398;BME280;4236;54.504;9.588;2024-02-16T02:29:27;100957.56;;;10.97;100.00
8398;BME280;4236;54.504;9.588;2024-02-16T02:31:54;100959.41;;;10.96;100.00
8398;BME280;4236;54.504;9.588;2024-02-16T02:34:22;100960.44;;;10.95;100.00
8398;BME280;4236;54.504;9.588;2024-02-16T02:36:50;100960.44;;;10.95;100.00
8398;BME280;4236;54.504;9.588;2024-02-16T02:39:18;100947.28;;;10.94;100.00
8398;BME280;4236;54.504;9.588;2024-02-16T02:41:47;100933.94;;;10.94;100.00
8398;BME280;4236;54.504;9.588;2024-02-16T02:44:15;100935.78;;;10.93;100.00
8398;BME280;4236;54.504;9.588;2024-02-16T02:46:42;100936.16;;;10.90;100.00
8398;BME280;4236;54.504;9.588;2024-02-16T02:49:10;100950.34;;;10.91;100.00
8398;BME280;4236;54.504;9.588;2024-02-16T02:51:38;100955.66;;;10.91;100.00
8398;BME280;4236;54.504;9.588;2024-02-16T02:54:06;100945.59;;;10.86;100.00
8398;BME280;4236;54.504;9.588;2024-02-16T02:56:34;100947.22;;;10.87;100.00
8398;BME280;4236;54.504;9.588;2024-02-16T02:59:03;100938.41;;;10.87;100.00
8398;BME280;4236;54.504;9.588;2024-02-16T03:01:32;100935.09;;;10.85;100.00
8398;BME280;4236;54.504;9.588;2024-02-16T03:04:01;100937.16;;;10.83;100.00
8398;BME280;4236;54.504;9.588;2024-02-16T03:06:29;100935.31;;;10.83;100.00
8398;BME280;4236;54.504;9.588;2024-02-16T03:08:56;100929.97;;;10.83;100.00
8398;BME280;4236;54.504;9.588;2024-02-16T03:11:24;100920.31;;;10.82;100.00
8398;BME280;4236;54.504;9.588;2024-02-16T03:13:52;100915.19;;;10.81;100.00
8398;BME280;4236;54.504;9.588;2024-02-16T03:16:21;100909.19;;;10.79;100.00
8398;BME280;4236;54.504;9.588;2024-02-16T03:18:49;100912.69;;;10.79;100.00
8398;BME280;4236;54.504;9.588;2024-02-16T03:21:17;100907.56;;;10.78;100.00
8398;BME280;4236;54.504;9.588;2024-02-16T03:23:45;100909.59;;;10.76;100.00
8398;BME280;4236;54.504;9.588;2024-02-16T03:26:14;100901.13;;;10.72;100.00
8398;BME280;4236;54.504;9.588;2024-02-16T03:28:43;100900.13;;;10.73;100.00
8398;BME280;4236;54.504;9.588;2024-02-16T03:31:17;100903.19;;;10.70;100.00
8398;BME280;4236;54.504;9.588;2024-02-16T03:33:46;100899.69;;;10.70;100.00
8398;BME280;4236;54.504;9.588;2024-02-16T03:36:15;100909.34;;;10.71;100.00
8398;BME280;4236;54.504;9.588;2024-02-16T03:38:44;100903.41;;;10.69;100.00
8398;BME280;4236;54.504;9.588;2024-02-16T03:41:13;100909.72;;;10.68;100.00
8398;BME280;4236;54.504;9.588;2024-02-16T03:43:42;100900.06;;;10.67;100.00
8398;BME280;4236;54.504;9.588;2024-02-16T03:46:10;100907.28;;;10.66;100.00
8398;BME280;4236;54.504;9.588;2024-02-16T03:48:38;100899.44;;;10.65;100.00
8398;BME280;4236;54.504;9.588;2024-02-16T03:51:08;100906.81;;;10.63;100.00
8398;BME280;4236;54.504;9.588;2024-02-16T03:53:36;100899.84;;;10.62;100.00
8398;BME280;4236;54.504;9.588;2024-02-16T03:56:04;100900.84;;;10.61;100.00
8398;BME280;4236;54.504;9.588;2024-02-16T03:58:32;100913.56;;;10.59;100.00
8398;BME280;4236;54.504;9.588;2024-02-16T04:01:00;100899.38;;;10.58;100.00
8398;BME280;4236;54.504;9.588;2024-02-16T04:03:28;100880.09;;;10.56;100.00
8398;BME280;4236;54.504;9.588;2024-02-16T04:05:56;100884.59;;;10.55;100.00
8398;BME280;4236;54.504;9.588;2024-02-16T04:08:27;100876.59;;;10.55;100.00
8398;BME280;4236;54.504;9.588;2024-02-16T04:10:55;100880.28;;;10.54;100.00
8398;BME280;4236;54.504;9.588;2024-02-16T04:13:22;100875.16;;;10.53;100.00
8398;BME280;4236;54.504;9.588;2024-02-16T04:15:50;100874.31;;;10.52;100.00
8398;BME280;4236;54.504;9.588;2024-02-16T04:18:21;100870.66;;;10.53;100.00
8398;BME280;4236;54.504;9.588;2024-02-16T04:20:49;100866.31;;;10.52;100.00
8398;BME280;4236;54.504;9.588;2024-02-16T04:23:16;100857.72;;;10.50;100.00
8398;BME280;4236;54.504;9.588;2024-02-16T04:25:45;100863.22;;;10.49;100.00
8398;BME280;4236;54.504;9.588;2024-02-16T04:28:13;100862.22;;;10.50;100.00
8398;BME280;4236;54.504;9.588;2024-02-16T04:30:41;100859.72;;;10.48;100.00
8398;BME280;4236;54.504;9.588;2024-02-16T04:33:09;100858.72;;;10.49;100.00
8398;BME280;4236;54.504;9.588;2024-02-16T04:35:38;100860.38;;;10.50;100.00
8398;BME280;4236;54.504;9.588;2024-02-16T04:38:05;100857.72;;;10.50;100.00
8398;BME280;4236;54.504;9.588;2024-02-16T04:40:36;100864.03;;;10.49;100.00
8398;BME280;4236;54.504;9.588;2024-02-16T04:43:05;100863.22;;;10.49;100.00
8398;BME280;4236;54.504;9.588;2024-02-16T04:45:33;100857.25;;;10.47;100.00
8398;BME280;4236;54.504;9.588;2024-02-16T04:48:03;100846.97;;;10.44;100.00
8398;BME280;4236;54.504;9.588;2024-02-16T04:50:32;100849.03;;;10.42;100.00
8398;BME280;4236;54.504;9.588;2024-02-16T04:53:00;100854.53;;;10.40;100.00
8398;BME280;4236;54.504;9.588;2024-02-16T04:55:29;100849.03;;;10.42;100.00
8398;BME280;4236;54.504;9.588;2024-02-16T04:57:57;100847.53;;;10.39;100.00
8398;BME280;4236;54.504;9.588;2024-02-16T05:00:26;100843.25;;;10.38;100.00
8398;BME280;4236;54.504;9.588;2024-02-16T05:02:54;100844.06;;;10.39;100.00
8398;BME280;4236;54.504;9.588;2024-02-16T05:05:22;100841.81;;;10.36;100.00
8398;BME280;4236;54.504;9.588;2024-02-16T05:07:51;100837.47;;;10.35;100.00
8398;BME280;4236;54.504;9.588;2024-02-16T05:10:19;100837.69;;;10.33;100.00
8398;BME280;4236;54.504;9.588;2024-02-16T05:12:47;100835.19;;;10.32;100.00
8398;BME280;4236;54.504;9.588;2024-02-16T05:15:15;100824.75;;;10.30;100.00
8398;BME280;4236;54.504;9.588;2024-02-16T05:17:46;100828.59;;;10.28;100.00
8398;BME280;4236;54.504;9.588;2024-02-16T05:20:15;100833.28;;;10.26;100.00
8398;BME280;4236;54.504;9.588;2024-02-16T05:22:44;100822.19;;;10.22;100.00
8398;BME280;4236;54.504;9.588;2024-02-16T05:25:12;100831.41;;;10.20;100.00
8398;BME280;4236;54.504;9.588;2024-02-16T05:27:41;100837.56;;;10.20;100.00
8398;BME280;4236;54.504;9.588;2024-02-16T05:30:10;100828.28;;;10.16;100.00
8398;BME280;4236;54.504;9.588;2024-02-16T05:32:39;100830.13;;;10.16;100.00
8398;BME280;4236;54.504;9.588;2024-02-16T05:35:09;100836.50;;;10.15;100.00
8398;BME280;4236;54.504;9.588;2024-02-16T05:37:40;100838.47;;;10.13;100.00
8398;BME280;4236;54.504;9.588;2024-02-16T05:40:11;100837.22;;;10.09;100.00
8398;BME280;4236;54.504;9.588;2024-02-16T05:42:50;100832.91;;;10.08;100.00
8398;BME280;4236;54.504;9.588;2024-02-16T05:45:18;100831.44;;;10.05;100.00
8398;BME280;4236;54.504;9.588;2024-02-16T05:47:49;100824.44;;;10.04;100.00
8398;BME280;4236;54.504;9.588;2024-02-16T05:50:20;100819.50;;;10.01;100.00
8398;BME280;4236;54.504;9.588;2024-02-16T05:52:49;100817.88;;;10.00;100.00
8398;BME280;4236;54.504;9.588;2024-02-16T05:55:18;100820.91;;;9.97;100.00
8398;BME280;4236;54.504;9.588;2024-02-16T05:57:46;100820.25;;;9.95;100.00
8398;BME280;4236;54.504;9.588;2024-02-16T06:00:14;100819.63;;;9.93;100.00
8398;BME280;4236;54.504;9.588;2024-02-16T06:02:43;100830.13;;;9.94;100.00
8398;BME280;4236;54.504;9.588;2024-02-16T06:05:11;100825.97;;;9.92;100.00
8398;BME280;4236;54.504;9.588;2024-02-16T06:07:40;100824.34;;;9.91;100.00
8398;BME280;4236;54.504;9.588;2024-02-16T06:10:08;100824.34;;;9.91;100.00
8398;BME280;4236;54.504;9.588;2024-02-16T06:12:38;100828.38;;;9.87;100.00
8398;BME280;4236;54.504;9.588;2024-02-16T06:15:07;100825.94;;;9.85;100.00
8398;BME280;4236;54.504;9.588;2024-02-16T06:17:35;100812.78;;;9.84;100.00
8398;BME280;4236;54.504;9.588;2024-02-16T06:20:05;100801.50;;;9.82;100.00
8398;BME280;4236;54.504;9.588;2024-02-16T06:22:35;100803.53;;;9.80;100.00
8398;BME280;4236;54.504;9.588;2024-02-16T06:25:05;100809.06;;;9.78;100.00
8398;BME280;4236;54.504;9.588;2024-02-16T06:27:33;100806.56;;;9.77;100.00
8398;BME280;4236;54.504;9.588;2024-02-16T06:30:01;100794.66;;;9.73;100.00
8398;BME280;4236;54.504;9.588;2024-02-16T06:32:30;100794.00;;;9.71;100.00
8398;BME280;4236;54.504;9.588;2024-02-16T06:34:58;100789.72;;;9.70;100.00
8398;BME280;4236;54.504;9.588;2024-02-16T06:37:26;100790.09;;;9.67;100.00
8398;BME280;4236;54.504;9.588;2024-02-16T06:39:54;100801.75;;;9.66;100.00
8398;BME280;4236;54.504;9.588;2024-02-16T06:42:23;100818.94;;;9.63;100.00
8398;BME280;4236;54.504;9.588;2024-02-16T06:44:51;100823.16;;;9.58;100.00
8398;BME280;4236;54.504;9.588;2024-02-16T06:47:19;100816.38;;;9.55;100.00
8398;BME280;4236;54.504;9.588;2024-02-16T06:49:47;100819.22;;;9.54;100.00
8398;BME280;4236;54.504;9.588;2024-02-16T06:52:14;100816.75;;;9.52;100.00
8398;BME280;4236;54.504;9.588;2024-02-16T06:54:43;100820.25;;;9.53;100.00
8398;BME280;4236;54.504;9.588;2024-02-16T06:57:10;100812.44;;;9.51;100.00
8398;BME280;4236;54.504;9.588;2024-02-16T06:59:40;100827.41;;;9.52;100.00
8398;BME280;4236;54.504;9.588;2024-02-16T07:02:08;100828.88;;;9.55;100.00
8398;BME280;4236;54.504;9.588;2024-02-16T07:04:39;100840.16;;;9.57;100.00
8398;BME280;4236;54.504;9.588;2024-02-16T07:07:07;100827.50;;;9.59;100.00
8398;BME280;4236;54.504;9.588;2024-02-16T07:09:35;100818.31;;;9.61;100.00
8398;BME280;4236;54.504;9.588;2024-02-16T07:12:07;100817.09;;;9.64;100.00
8398;BME280;4236;54.504;9.588;2024-02-16T07:14:35;100821.00;;;9.68;100.00
8398;BME280;4236;54.504;9.588;2024-02-16T07:17:04;100810.81;;;9.71;100.00
8398;BME280;4236;54.504;9.588;2024-02-16T07:19:36;100813.94;;;9.75;100.00
8398;BME280;4236;54.504;9.588;2024-02-16T07:22:04;100813.38;;;9.79;100.00
8398;BME280;4236;54.504;9.588;2024-02-16T07:24:33;100829.59;;;9.84;100.00
8398;BME280;4236;54.504;9.588;2024-02-16T07:27:01;100826.56;;;9.87;100.00
8398;BME280;4236;54.504;9.588;2024-02-16T07:29:29;100822.69;;;9.90;100.00
8398;BME280;4236;54.504;9.588;2024-02-16T07:31:57;100822.31;;;9.93;100.00
8398;BME280;4236;54.504;9.588;2024-02-16T07:34:26;100824.97;;;9.93;100.00
8398;BME280;4236;54.504;9.588;2024-02-16T07:36:55;100828.09;;;9.96;100.00
8398;BME280;4236;54.504;9.588;2024-02-16T07:39:23;100823.81;;;10.02;100.00
8398;BME280;4236;54.504;9.588;2024-02-16T07:41:52;100823.25;;;10.07;100.00
8398;BME280;4236;54.504;9.588;2024-02-16T07:44:20;100818.56;;;10.09;100.00
8398;BME280;4236;54.504;9.588;2024-02-16T07:46:48;100812.19;;;10.10;100.00
8398;BME280;4236;54.504;9.588;2024-02-16T07:49:17;100817.63;;;10.16;100.00
8398;BME280;4236;54.504;9.588;2024-02-16T07:51:46;100802.53;;;10.23;100.00
8398;BME280;4236;54.504;9.588;2024-02-16T07:54:15;100797.63;;;10.27;100.00
8398;BME280;4236;54.504;9.588;2024-02-16T07:56:43;100802.19;;;10.33;100.00
8398;BME280;4236;54.504;9.588;2024-02-16T07:59:10;100806.16;;;10.43;100.00
8398;BME280;4236;54.504;9.588;2024-02-16T08:01:38;100807.88;;;10.51;100.00
8398;BME280;4236;54.504;9.588;2024-02-16T08:04:07;100802.16;;;10.61;100.00
8398;BME280;4236;54.504;9.588;2024-02-16T08:06:34;100801.66;;;10.72;100.00
8398;BME280;4236;54.504;9.588;2024-02-16T08:09:04;100810.09;;;10.82;100.00
8398;BME280;4236;54.504;9.588;2024-02-16T08:11:33;100810.38;;;10.93;100.00
8398;BME280;4236;54.504;9.588;2024-02-16T08:14:00;100809.63;;;11.06;100.00
8398;BME280;4236;54.504;9.588;2024-02-16T08:16:29;100807.44;;;11.16;100.00
8398;BME280;4236;54.504;9.588;2024-02-16T08:18:57;100803.75;;;11.24;100.00
8398;BME280;4236;54.504;9.588;2024-02-16T08:21:25;100808.50;;;11.28;100.00
8398;BME280;4236;54.504;9.588;2024-02-16T08:23:52;100807.88;;;11.33;100.00
8398;BME280;4236;54.504;9.588;2024-02-16T08:26:22;100801.53;;;11.34;100.00
8398;BME280;4236;54.504;9.588;2024-02-16T08:28:49;100771.94;;;11.35;100.00
8398;BME280;4236;54.504;9.588;2024-02-16T08:31:17;100790.84;;;11.27;100.00
8398;BME280;4236;54.504;9.588;2024-02-16T08:33:45;100788.97;;;11.21;100.00
8398;BME280;4236;54.504;9.588;2024-02-16T08:36:14;100781.34;;;11.18;100.00
8398;BME280;4236;54.504;9.588;2024-02-16T08:38:42;100780.31;;;11.13;100.00
8398;BME280;4236;54.504;9.588;2024-02-16T08:41:10;100782.56;;;11.16;100.00
8398;BME280;4236;54.504;9.588;2024-02-16T08:43:39;100780.72;;;11.16;100.00
8398;BME280;4236;54.504;9.588;2024-02-16T08:46:07;100773.38;;;11.25;100.00
8398;BME280;4236;54.504;9.588;2024-02-16T08:48:35;100785.53;;;11.34;100.00
8398;BME280;4236;54.504;9.588;2024-02-16T08:51:03;100783.50;;;11.42;100.00
8398;BME280;4236;54.504;9.588;2024-02-16T08:53:32;100778.59;;;11.52;100.00
8398;BME280;4236;54.504;9.588;2024-02-16T08:56:00;100768.56;;;11.61;100.00
8398;BME280;4236;54.504;9.588;2024-02-16T08:58:28;100776.97;;;11.64;100.00
8398;BME280;4236;54.504;9.588;2024-02-16T09:00:57;100757.25;;;11.65;100.00
8398;BME280;4236;54.504;9.588;2024-02-16T09:03:25;100752.53;;;11.68;100.00
8398;BME280;4236;54.504;9.588;2024-02-16T09:05:53;100766.91;;;11.66;100.00
8398;BME280;4236;54.504;9.588;2024-02-16T09:08:21;100760.31;;;11.62;100.00
8398;BME280;4236;54.504;9.588;2024-02-16T09:10:49;100760.50;;;11.54;100.00
8398;BME280;4236;54.504;9.588;2024-02-16T09:13:17;100779.63;;;11.51;100.00
8398;BME280;4236;54.504;9.588;2024-02-16T09:16:00;100777.38;;;11.55;100.00
8398;BME280;4236;54.504;9.588;2024-02-16T09:18:28;100778.38;;;11.54;100.00
8398;BME280;4236;54.504;9.588;2024-02-16T09:20:56;100776.13;;;11.57;100.00
8398;BME280;4236;54.504;9.588;2024-02-16T09:23:24;100788.47;;;11.58;100.00
8398;BME280;4236;54.504;9.588;2024-02-16T09:25:51;100773.28;;;11.65;100.00
8398;BME280;4236;54.504;9.588;2024-02-16T09:28:21;100776.16;;;11.64;100.00
8398;BME280;4236;54.504;9.588;2024-02-16T09:30:56;100780.88;;;11.68;100.00
8398;BME280;4236;54.504;9.588;2024-02-16T09:33:25;100781.34;;;11.72;100.00
8398;BME280;4236;54.504;9.588;2024-02-16T09:35:54;100783.00;;;11.80;100.00
8398;BME280;4236;54.504;9.588;2024-02-16T09:38:22;100785.06;;;11.84;100.00
8398;BME280;4236;54.504;9.588;2024-02-16T09:40:50;100790.00;;;12.07;100.00
8398;BME280;4236;54.504;9.588;2024-02-16T09:43:25;100777.88;;;12.24;100.00
8398;BME280;4236;54.504;9.588;2024-02-16T09:45:55;100769.47;;;12.27;100.00
8398;BME280;4236;54.504;9.588;2024-02-16T09:48:26;100774.38;;;12.30;100.00
8398;BME280;4236;54.504;9.588;2024-02-16T09:50:55;100778.28;;;12.34;100.00
8398;BME280;4236;54.504;9.588;2024-02-16T09:53:26;100780.34;;;12.39;100.00
8398;BME280;4236;54.504;9.588;2024-02-16T09:55:54;100776.63;;;12.46;100.00
8398;BME280;4236;54.504;9.588;2024-02-16T09:58:22;100784.22;;;12.56;100.00
8398;BME280;4236;54.504;9.588;2024-02-16T10:00:51;100785.63;;;12.71;100.00
8398;BME280;4236;54.504;9.588;2024-02-16T10:03:24;100782.72;;;12.93;100.00
8398;BME280;4236;54.504;9.588;2024-02-16T10:06:04;100785.34;;;12.99;100.00
8398;BME280;4236;54.504;9.588;2024-02-16T10:08:32;100779.56;;;13.02;100.00
8398;BME280;4236;54.504;9.588;2024-02-16T10:11:01;100787.59;;;13.02;100.00
8398;BME280;4236;54.504;9.588;2024-02-16T10:13:30;100780.38;;;13.03;100.00
8398;BME280;4236;54.504;9.588;2024-02-16T10:16:05;100779.38;;;13.04;100.00
8398;BME280;4236;54.504;9.588;2024-02-16T10:18:35;100784.28;;;13.07;100.00
8398;BME280;4236;54.504;9.588;2024-02-16T10:21:05;100791.09;;;13.09;100.00
8398;BME280;4236;54.504;9.588;2024-02-16T10:23:34;100791.09;;;13.09;100.00
8398;BME280;4236;54.504;9.588;2024-02-16T10:26:09;100787.38;;;13.17;100.00
8398;BME280;4236;54.504;9.588;2024-02-16T10:28:37;100780.56;;;13.14;100.00
8398;BME280;4236;54.504;9.588;2024-02-16T10:31:05;100788.00;;;13.19;100.00
8398;BME280;4236;54.504;9.588;2024-02-16T10:33:34;100804.03;;;13.25;100.00
8398;BME280;4236;54.504;9.588;2024-02-16T10:36:05;100797.03;;;13.24;100.00
8398;BME280;4236;54.504;9.588;2024-02-16T10:38:35;100790.81;;;13.30;100.00
8398;BME280;4236;54.504;9.588;2024-02-16T10:41:04;100791.81;;;13.36;100.00
8398;BME280;4236;54.504;9.588;2024-02-16T10:43:32;100790.53;;;13.45;100.00
8398;BME280;4236;54.504;9.588;2024-02-16T10:46:00;100789.66;;;13.58;100.00
8398;BME280;4236;54.504;9.588;2024-02-16T10:48:29;100789.63;;;13.64;100.00
8398;BME280;4236;54.504;9.588;2024-02-16T10:50:57;100787.78;;;13.65;100.00
8398;BME280;4236;54.504;9.588;2024-02-16T10:53:27;100793.06;;;13.71;100.00
8398;BME280;4236;54.504;9.588;2024-02-16T10:55:57;100793.28;;;13.70;100.00
8398;BME280;4236;54.504;9.588;2024-02-16T10:58:27;100793.41;;;13.81;100.00
8398;BME280;4236;54.504;9.588;2024-02-16T11:00:56;100793.19;;;13.83;100.00
8398;BME280;4236;54.504;9.588;2024-02-16T11:03:26;100792.88;;;13.73;100.00
8398;BME280;4236;54.504;9.588;2024-02-16T11:05:55;100798.22;;;13.73;100.00
8398;BME280;4236;54.504;9.588;2024-02-16T11:08:27;100790.81;;;13.68;100.00
8398;BME280;4236;54.504;9.588;2024-02-16T11:10:56;100784.25;;;13.64;100.00
8398;BME280;4236;54.504;9.588;2024-02-16T11:13:26;100782.00;;;13.61;100.00
8398;BME280;4236;54.504;9.588;2024-02-16T11:15:57;100780.53;;;13.65;100.00
8398;BME280;4236;54.504;9.588;2024-02-16T11:18:27;100784.44;;;13.69;100.00
8398;BME280;4236;54.504;9.588;2024-02-16T11:20:55;100778.22;;;13.75;100.00
8398;BME280;4236;54.504;9.588;2024-02-16T11:23:29;100782.69;;;13.81;100.00
8398;BME280;4236;54.504;9.588;2024-02-16T11:26:00;100776.09;;;13.84;100.00
8398;BME280;4236;54.504;9.588;2024-02-16T11:28:29;100781.88;;;13.81;100.00
8398;BME280;4236;54.504;9.588;2024-02-16T11:30:58;100797.97;;;13.81;100.00
8398;BME280;4236;54.504;9.588;2024-02-16T11:33:27;100790.09;;;13.86;100.00
8398;BME280;4236;54.504;9.588;2024-02-16T11:35:58;100795.00;;;13.89;100.00
8398;BME280;4236;54.504;9.588;2024-02-16T11:38:26;100789.88;;;13.88;100.00
8398;BME280;4236;54.504;9.588;2024-02-16T11:40:56;100782.31;;;13.78;100.00
8398;BME280;4236;54.504;9.588;2024-02-16T11:43:25;100773.66;;;13.76;100.00
8398;BME280;4236;54.504;9.588;2024-02-16T11:45:53;100780.44;;;13.78;100.00
8398;BME280;4236;54.504;9.588;2024-02-16T11:48:22;100773.66;;;13.76;100.00
8398;BME280;4236;54.504;9.588;2024-02-16T11:50:59;100786.63;;;13.79;100.00
8398;BME280;4236;54.504;9.588;2024-02-16T11:53:28;100775.50;;;13.82;100.00
8398;BME280;4236;54.504;9.588;2024-02-16T11:55:57;100777.50;;;13.86;100.00
8398;BME280;4236;54.504;9.588;2024-02-16T11:58:26;100776.03;;;13.91;100.00
8398;BME280;4236;54.504;9.588;2024-02-16T12:00:55;100764.50;;;13.90;100.00
8398;BME280;4236;54.504;9.588;2024-02-16T12:03:29;100745.53;;;13.92;100.00
8398;BME280;4236;54.504;9.588;2024-02-16T12:05:58;100761.94;;;14.02;100.00
8398;BME280;4236;54.504;9.588;2024-02-16T12:08:32;100772.38;;;14.10;100.00
8398;BME280;4236;54.504;9.588;2024-02-16T12:11:02;100761.81;;;14.15;100.00
8398;BME280;4236;54.504;9.588;2024-02-16T12:13:30;100775.25;;;14.15;100.00
8398;BME280;4236;54.504;9.588;2024-02-16T12:15:57;100782.75;;;14.06;100.00
8398;BME280;4236;54.504;9.588;2024-02-16T12:18:26;100771.13;;;14.12;100.00
8398;BME280;4236;54.504;9.588;2024-02-16T12:20:59;100774.19;;;14.16;100.00
8398;BME280;4236;54.504;9.588;2024-02-16T12:23:28;100775.25;;;14.15;100.00
8398;BME280;4236;54.504;9.588;2024-02-16T12:25:57;100770.81;;;14.27;100.00
8398;BME280;4236;54.504;9.588;2024-02-16T12:28:28;100768.13;;;14.27;100.00
8398;BME280;4236;54.504;9.588;2024-02-16T12:30:58;100778.03;;;14.26;100.00
8398;BME280;4236;54.504;9.588;2024-02-16T12:33:29;100763.31;;;14.35;100.00
8398;BME280;4236;54.504;9.588;2024-02-16T12:35:58;100763.34;;;14.29;100.00
8398;BME280;4236;54.504;9.588;2024-02-16T12:38:26;100770.81;;;14.27;100.00
8398;BME280;4236;54.504;9.588;2024-02-16T12:40:54;100773.19;;;14.10;100.00
8398;BME280;4236;54.504;9.588;2024-02-16T12:43:22;100772.13;;;14.18;100.00
8398;BME280;4236;54.504;9.588;2024-02-16T12:45:52;100772.59;;;14.08;100.00
8398;BME280;4236;54.504;9.588;2024-02-16T12:48:20;100765.44;;;14.27;100.00
8398;BME280;4236;54.504;9.588;2024-02-16T12:50:48;100778.94;;;14.45;100.00
8398;BME280;4236;54.504;9.588;2024-02-16T12:53:17;100773.03;;;14.30;100.00
8398;BME280;4236;54.504;9.588;2024-02-16T12:55:47;100778.84;;;14.27;100.00
8398;BME280;4236;54.504;9.588;2024-02-16T12:58:15;100776.22;;;14.20;100.00
8398;BME280;4236;54.504;9.588;2024-02-16T13:00:43;100770.75;;;14.09;100.00
8398;BME280;4236;54.504;9.588;2024-02-16T13:03:12;100767.69;;;14.05;100.00
8398;BME280;4236;54.504;9.588;2024-02-16T13:05:40;100771.97;;;13.81;100.00
8398;BME280;4236;54.504;9.588;2024-02-16T13:08:09;100776.16;;;13.71;100.00
8398;BME280;4236;54.504;9.588;2024-02-16T13:10:37;100770.91;;;13.58;100.00